Main page
METAR-TAF:

METAR-TAF

Airports :

Caen – Carpiquet Airport

Caen, France

latitude: 49-11N, longitude: 000-27W, elevation: 78 m

Current weather observation

The report was made 17 minutes ago, at 20:30 UTC
Wind 8 kt from the South
Temperature 11°C
Humidity 94%
Pressure 1018 hPa
Visibility: 9000 m

METAR: LFRK 282030Z AUTO 18008KT 9000 OVC009/// 11/10 Q1018 TEMPO 4000 RADZ

Time: 21:47 (20:47 UTC)

Forecast

The report was made 6 hours and 47 minutes ago, at 14:00 UTC
Forecast valid from 28 at 15 UTC to 28 at 24 UTC
Wind 10 kt from the South/Southwest
Visibility 10 km or more
Broken clouds at a height of 1200 ft
Broken clouds at a height of 2000 ft
Probability 40% :
Temporary
from 28 at 15 UTC to 28 at 18 UTC
Visibility: 5000 m
Broken clouds at a height of 800 ft
rain, drizzle
Temporary
from 28 at 18 UTC to 28 at 24 UTC
Visibility: 4000 m
Broken clouds at a height of 700 ft
rain, drizzle,

TAF: LFRK 281400Z 2815/2824 20010KT 9999 BKN012 BKN020 PROB40 TEMPO 2815/2818 5000 RADZ BKN008 TEMPO 2818/2824 4000 RADZ BKN007

Weather observations and forecasts of more than 4000 airports (METAR and TAF reports).

The available stations are represented by yellow and red dots on the map.

Hover mouse over dot to see the name of the station.

Then click to see weather observations and forecasts.

To change the map : click on the green buttons with a black cross to zoom in, on the green button with a dash to zoom out, or on the green arrows for adjacent maps.


METAR-TAF: